createdAt,value
2019-02-05T00:00:52.051Z,17.10
2019-02-05T00:03:22.674Z,17.47
2019-02-05T00:05:51.891Z,17.23
2019-02-05T00:08:20.968Z,17.07
2019-02-05T00:10:50.028Z,17.97
2019-02-05T00:13:19.112Z,17.27
2019-02-05T00:15:48.348Z,17.43
2019-02-05T00:18:17.470Z,18.37
2019-02-05T00:20:47.104Z,17.03
2019-02-05T00:23:16.454Z,17.33
2019-02-05T00:25:45.734Z,18.47
2019-02-05T00:28:14.797Z,17.77
2019-02-05T00:30:44.778Z,17.47
2019-02-05T00:33:13.856Z,17.37
2019-02-05T00:35:43.005Z,18.63
2019-02-05T00:38:12.160Z,17.73
2019-02-05T00:40:41.238Z,18.27
2019-02-05T00:43:10.447Z,17.93
2019-02-05T00:45:39.766Z,19.83
2019-02-05T00:48:08.847Z,17.77
2019-02-05T00:50:37.931Z,17.70
2019-02-05T00:53:08.463Z,17.63
2019-02-05T00:55:37.591Z,18.10
2019-02-05T00:58:06.665Z,17.67
2019-02-05T01:00:35.878Z,17.87
2019-02-05T01:03:05.820Z,17.50
2019-02-05T01:05:34.881Z,17.30
2019-02-05T01:08:04.252Z,17.70
2019-02-05T01:10:33.329Z,18.17
2019-02-05T01:13:02.385Z,18.23
2019-02-05T01:15:31.456Z,17.67
2019-02-05T01:18:00.628Z,17.12
2019-02-05T01:20:29.777Z,18.13
2019-02-05T01:22:58.841Z,17.93
2019-02-05T01:25:27.985Z,17.33
2019-02-05T01:27:57.423Z,17.30
2019-02-05T01:30:27.955Z,18.20
2019-02-05T01:32:57.040Z,17.50
2019-02-05T01:35:26.178Z,19.03
2019-02-05T01:37:55.289Z,18.17
2019-02-05T01:40:25.932Z,18.07
2019-02-05T01:42:55.309Z,17.63
2019-02-05T01:45:24.856Z,17.90
2019-02-05T01:47:54.444Z,17.93
2019-02-05T01:50:25.485Z,18.90
2019-02-05T01:52:54.606Z,18.03
2019-02-05T01:55:24.155Z,17.23
2019-02-05T01:57:53.621Z,16.77
2019-02-05T02:00:34.682Z,17.07
2019-02-05T02:03:03.884Z,17.30
2019-02-05T02:05:33.018Z,18.53
2019-02-05T02:08:02.366Z,18.73
2019-02-05T02:10:31.554Z,18.43
2019-02-05T02:13:00.620Z,17.73
2019-02-05T02:15:29.991Z,17.70
2019-02-05T02:17:59.069Z,18.30
2019-02-05T02:20:28.146Z,18.27
2019-02-05T02:22:57.592Z,18.60
2019-02-05T02:25:26.664Z,18.77
2019-02-05T02:27:55.747Z,18.80
2019-02-05T02:30:39.235Z,18.83
2019-02-05T02:33:08.534Z,17.63
2019-02-05T02:35:38.035Z,18.93
2019-02-05T02:38:07.423Z,19.40
2019-02-05T02:40:36.492Z,19.43
2019-02-05T02:43:05.573Z,19.63
2019-02-05T02:45:34.637Z,19.93
2019-02-05T02:48:03.803Z,19.27
2019-02-05T02:50:33.341Z,20.50
2019-02-05T02:53:02.496Z,19.20
2019-02-05T02:55:31.613Z,20.17
2019-02-05T02:58:00.774Z,20.53
2019-02-05T03:00:30.429Z,21.57
2019-02-05T03:02:59.582Z,21.80
2019-02-05T03:05:29.141Z,21.47
2019-02-05T03:07:58.224Z,23.30
2019-02-05T03:10:29.457Z,23.37
2019-02-05T03:12:58.909Z,23.17
2019-02-05T03:15:28.165Z,22.10
2019-02-05T03:17:57.549Z,22.73
2019-02-05T03:20:26.699Z,23.57
2019-02-05T03:22:56.119Z,24.33
2019-02-05T03:25:25.851Z,23.57
2019-02-05T03:27:55.190Z,23.47
2019-02-05T03:30:25.510Z,24.60
2019-02-05T03:32:55.818Z,24.27
2019-02-05T03:35:25.161Z,24.17
2019-02-05T03:37:54.536Z,23.90
2019-02-05T03:40:59.209Z,24.30
2019-02-05T03:43:28.276Z,22.53
2019-02-05T03:45:59.355Z,24.23
2019-02-05T03:48:29.243Z,25.03
2019-02-05T03:51:20.124Z,25.40
2019-02-05T03:53:53.786Z,24.17
2019-02-05T03:57:05.312Z,25.97
2019-02-05T03:59:56.691Z,25.47
2019-02-05T04:02:52.314Z,25.57
2019-02-05T04:06:04.669Z,25.70
2019-02-05T04:09:27.145Z,27.00
2019-02-05T04:12:26.715Z,26.33
2019-02-05T04:15:35.925Z,25.80
2019-02-05T04:18:15.865Z,25.80
2019-02-05T04:21:27.926Z,25.30
2019-02-05T04:24:22.576Z,27.70
2019-02-05T04:27:22.422Z,25.20
2019-02-05T04:30:37.716Z,26.33
2019-02-05T04:33:48.220Z,26.10
2019-02-05T04:36:34.771Z,27.00
2019-02-05T04:39:28.190Z,26.20
2019-02-05T04:42:34.608Z,27.23
2019-02-05T04:45:40.365Z,28.03
2019-02-05T04:49:08.695Z,26.57
2019-02-05T04:52:04.718Z,25.97
2019-02-05T04:55:10.774Z,26.50
2019-02-05T04:58:05.532Z,26.63
2019-02-05T05:01:30.516Z,26.87
2019-02-05T05:04:46.964Z,26.73
2019-02-05T05:08:03.013Z,26.03
2019-02-05T05:10:32.870Z,26.10
2019-02-05T05:13:01.961Z,26.90
2019-02-05T05:15:31.097Z,25.97
2019-02-05T05:18:00.171Z,27.03
2019-02-05T05:20:29.999Z,26.00
2019-02-05T05:22:59.173Z,25.83
2019-02-05T05:25:29.919Z,27.60
2019-02-05T05:28:09.802Z,26.87
2019-02-05T05:30:32.533Z,25.93
2019-02-05T05:33:01.608Z,27.23
2019-02-05T05:35:40.631Z,26.30
2019-02-05T05:38:02.141Z,25.87
2019-02-05T05:40:31.183Z,25.83
2019-02-05T05:43:00.313Z,25.40
2019-02-05T05:45:29.405Z,25.67
2019-02-05T05:47:58.552Z,26.23
2019-02-05T05:50:27.613Z,24.23
2019-02-05T05:52:56.776Z,26.40
2019-02-05T05:55:25.924Z,25.90
2019-02-05T05:57:55.006Z,25.37
2019-02-05T06:00:24.666Z,25.53
2019-02-05T06:02:53.763Z,25.97
2019-02-05T06:05:22.908Z,26.63
2019-02-05T06:07:52.347Z,25.27
2019-02-05T06:10:21.487Z,26.70
2019-02-05T06:12:50.612Z,26.90
2019-02-05T06:15:19.763Z,28.30
2019-02-05T06:17:48.811Z,26.93
2019-02-05T06:20:18.314Z,24.90
2019-02-05T06:22:47.936Z,27.13
2019-02-05T06:25:17.019Z,27.80
2019-02-05T06:27:46.061Z,26.67
2019-02-05T06:30:15.787Z,26.87
2019-02-05T06:32:44.924Z,26.30
2019-02-05T06:35:14.075Z,25.47
2019-02-05T06:37:43.582Z,27.23
2019-02-05T06:40:13.400Z,27.90
2019-02-05T06:42:42.531Z,25.50
2019-02-05T06:45:12.966Z,27.53
2019-02-05T06:47:42.062Z,27.60
2019-02-05T06:50:11.336Z,26.40
2019-02-05T06:52:40.498Z,27.03
2019-02-05T06:55:10.210Z,26.97
2019-02-05T06:57:39.346Z,27.57
2019-02-05T07:00:19.659Z,27.23
2019-02-05T07:02:48.723Z,27.93
2019-02-05T07:05:18.127Z,25.87
2019-02-05T07:07:47.275Z,27.13
2019-02-05T07:10:18.571Z,27.10
2019-02-05T07:12:47.752Z,27.70
2019-02-05T07:15:16.925Z,25.37
2019-02-05T07:17:49.954Z,27.40
2019-02-05T07:20:17.291Z,26.50
2019-02-05T07:22:46.483Z,27.80
2019-02-05T07:25:16.739Z,27.40
2019-02-05T07:27:45.902Z,28.10
2019-02-05T07:30:18.120Z,28.37
2019-02-05T07:32:47.278Z,28.43
2019-02-05T07:35:16.519Z,27.43
2019-02-05T07:37:45.888Z,28.03
2019-02-05T07:40:16.875Z,27.90
2019-02-05T07:42:46.151Z,28.83
2019-02-05T07:45:17.045Z,27.07
2019-02-05T07:47:46.218Z,27.33
2019-02-05T07:50:17.739Z,28.87
2019-02-05T07:52:46.893Z,27.50
2019-02-05T07:55:16.318Z,27.47
2019-02-05T07:57:45.812Z,27.03
2019-02-05T08:00:23.161Z,27.57
2019-02-05T08:02:52.268Z,27.17
2019-02-05T08:05:26.919Z,25.77
2019-02-05T08:07:56.355Z,26.70
2019-02-05T08:10:25.770Z,25.23
2019-02-05T08:12:55.089Z,26.67
2019-02-05T08:15:26.540Z,26.27
2019-02-05T08:17:55.831Z,25.50
2019-02-05T08:20:25.137Z,26.07
2019-02-05T08:22:55.585Z,24.40
2019-02-05T08:25:24.772Z,25.03
2019-02-05T08:27:54.217Z,24.73
2019-02-05T08:30:29.411Z,24.30
2019-02-05T08:32:58.629Z,24.80
2019-02-05T08:35:28.044Z,25.27
2019-02-05T08:37:57.679Z,24.17
2019-02-05T08:40:26.875Z,23.60
2019-02-05T08:42:56.057Z,22.40
2019-02-05T08:45:27.347Z,25.20
2019-02-05T08:47:56.545Z,25.50
2019-02-05T08:50:27.551Z,22.70
2019-02-05T08:52:57.001Z,23.10
2019-02-05T09:02:30.499Z,24.10
2019-02-05T09:04:59.603Z,24.73
2019-02-05T09:07:29.205Z,24.00
2019-02-05T09:09:58.389Z,24.53
2019-02-05T09:12:27.573Z,25.13
2019-02-05T09:14:56.748Z,22.17
2019-02-05T09:17:26.150Z,23.75
2019-02-05T09:19:55.873Z,23.27
2019-02-05T09:22:25.609Z,22.30
2019-02-05T09:25:00.333Z,22.83
2019-02-05T09:27:30.908Z,23.50
2019-02-05T09:30:00.243Z,24.87
2019-02-05T09:32:35.037Z,23.70
2019-02-05T09:35:00.381Z,24.17
2019-02-05T09:37:32.875Z,24.17
2019-02-05T09:40:01.988Z,23.40
2019-02-05T09:42:31.066Z,22.47
2019-02-05T09:45:00.232Z,22.60
2019-02-05T09:47:29.404Z,23.57
2019-02-05T09:49:58.570Z,20.23
2019-02-05T09:54:55.979Z,22.57
2019-02-05T09:57:25.148Z,19.57
2019-02-05T09:59:54.315Z,20.23
2019-02-05T10:02:23.490Z,21.93
2019-02-05T10:04:52.939Z,22.80
2019-02-05T10:07:22.112Z,22.23
2019-02-05T10:09:51.488Z,23.13
2019-02-05T10:12:20.585Z,23.23
2019-02-05T10:14:49.754Z,22.97
2019-02-05T10:17:19.169Z,22.87
2019-02-05T10:19:48.280Z,24.20
2019-02-05T10:22:17.483Z,24.27
2019-02-05T10:24:46.558Z,23.03
2019-02-05T10:27:17.563Z,23.00
2019-02-05T10:29:57.714Z,23.92
2019-02-05T10:32:17.663Z,24.47
2019-02-05T10:34:46.803Z,24.93
2019-02-05T10:37:16.035Z,21.80
2019-02-05T10:39:45.205Z,23.90
2019-02-05T10:42:14.653Z,23.00
2019-02-05T10:44:43.850Z,23.80
2019-02-05T10:47:25.677Z,23.87
2019-02-05T10:50:10.069Z,24.13
2019-02-05T10:52:39.949Z,24.23
2019-02-05T10:55:10.708Z,24.37
2019-02-05T10:57:39.863Z,24.07
2019-02-05T11:00:17.592Z,23.10
2019-02-05T11:02:47.156Z,24.33
2019-02-05T11:05:21.587Z,23.30
2019-02-05T11:07:50.791Z,22.23
2019-02-05T11:10:20.054Z,23.53
2019-02-05T11:12:49.231Z,24.33
2019-02-05T11:15:20.472Z,24.13
2019-02-05T11:17:49.663Z,24.00
2019-02-05T11:20:20.661Z,23.40
2019-02-05T11:22:50.136Z,23.77
2019-02-05T11:25:19.562Z,23.63
2019-02-05T11:27:48.943Z,22.70
2019-02-05T11:30:26.247Z,23.13
2019-02-05T11:32:56.248Z,22.20
2019-02-05T11:35:25.468Z,20.23
2019-02-05T11:37:54.729Z,21.00
2019-02-05T11:40:29.702Z,21.17
2019-02-05T11:42:58.863Z,20.87
2019-02-05T11:45:28.317Z,20.47
2019-02-05T11:47:58.978Z,20.23
2019-02-05T11:50:28.212Z,21.10
2019-02-05T11:52:57.699Z,20.53
2019-02-05T11:55:27.782Z,19.77
2019-02-05T11:57:56.950Z,20.77
2019-02-05T12:00:40.752Z,19.07
2019-02-05T12:03:24.278Z,20.83
2019-02-05T12:06:08.458Z,20.63
2019-02-05T12:08:50.383Z,21.93
2019-02-05T12:11:36.400Z,19.50
2019-02-05T12:14:25.617Z,20.53
2019-02-05T12:17:06.100Z,19.50
2019-02-05T12:19:49.473Z,19.53
2019-02-05T12:22:29.789Z,18.90
2019-02-05T12:25:08.583Z,19.90
2019-02-05T12:27:52.133Z,18.47
2019-02-05T12:30:43.833Z,19.77
2019-02-05T12:33:14.329Z,20.07
2019-02-05T12:35:56.000Z,19.83
2019-02-05T12:38:37.326Z,19.23
2019-02-05T12:41:07.035Z,19.47
2019-02-05T12:43:36.287Z,19.77
2019-02-05T12:46:05.651Z,19.77
2019-02-05T12:48:34.836Z,18.73
2019-02-05T12:51:04.309Z,18.15
2019-02-05T12:54:02.318Z,20.43
2019-02-05T12:56:46.595Z,20.13
2019-02-05T12:59:28.591Z,19.63
2019-02-05T13:01:58.142Z,18.90
2019-02-05T13:04:27.371Z,19.20
2019-02-05T13:06:56.633Z,19.40
2019-02-05T13:09:25.917Z,18.13
2019-02-05T13:11:55.085Z,19.50
2019-02-05T13:14:24.263Z,19.07
2019-02-05T13:16:53.629Z,19.20
2019-02-05T13:19:22.744Z,19.50
2019-02-05T13:21:52.059Z,19.73
2019-02-05T13:24:21.439Z,20.77
2019-02-05T13:26:50.600Z,22.47
2019-02-05T13:29:19.808Z,21.93
2019-02-05T13:31:49.084Z,23.20
2019-02-05T13:34:18.197Z,23.63
2019-02-05T13:36:47.377Z,24.30
2019-02-05T13:39:16.896Z,25.40
2019-02-05T13:41:46.136Z,26.10
2019-02-05T13:44:15.319Z,25.87
2019-02-05T13:46:44.743Z,24.50
2019-02-05T13:49:13.977Z,25.88
2019-02-05T13:51:43.200Z,24.63
2019-02-05T13:54:12.446Z,26.37
2019-02-05T13:56:41.642Z,22.97
2019-02-05T13:59:10.840Z,20.60
2019-02-05T14:01:40.307Z,21.00
2019-02-05T14:04:09.476Z,21.27
2019-02-05T14:06:38.727Z,21.83
2019-02-05T14:09:13.004Z,22.00
2019-02-05T14:11:42.329Z,21.63
2019-02-05T14:14:12.176Z,22.97
2019-02-05T14:16:43.292Z,24.97
2019-02-05T14:19:12.815Z,23.97
2019-02-05T14:21:42.077Z,24.90
2019-02-05T14:24:11.612Z,24.97
2019-02-05T14:26:40.792Z,24.67
2019-02-05T14:29:10.070Z,24.97
2019-02-05T14:31:39.486Z,23.63
2019-02-05T14:34:08.670Z,23.87
2019-02-05T14:36:37.776Z,23.20
2019-02-05T14:39:09.866Z,23.67
2019-02-05T14:41:39.220Z,23.17
2019-02-05T14:44:08.404Z,24.07
2019-02-05T14:46:37.992Z,23.55
2019-02-05T14:49:07.516Z,24.43
2019-02-05T14:51:36.696Z,22.40
2019-02-05T14:54:06.065Z,23.20
2019-02-05T14:56:35.208Z,21.87
2019-02-05T14:59:04.446Z,23.07
2019-02-05T15:01:43.137Z,22.63
2019-02-05T15:04:07.493Z,23.80
2019-02-05T15:06:36.734Z,22.87
2019-02-05T15:09:08.433Z,23.70
2019-02-05T15:11:37.691Z,23.40
2019-02-05T15:14:06.907Z,23.87
2019-02-05T15:16:36.214Z,25.30
2019-02-05T15:19:05.618Z,25.50
2019-02-05T15:21:34.978Z,25.17
2019-02-05T15:24:04.715Z,24.10
2019-02-05T15:26:33.887Z,24.33
2019-02-05T15:29:03.036Z,24.27
2019-02-05T15:31:32.647Z,23.27
2019-02-05T15:34:16.673Z,25.27
2019-02-05T15:36:48.419Z,24.07
2019-02-05T15:39:17.824Z,23.33
2019-02-05T15:41:47.086Z,24.27
2019-02-05T15:44:16.579Z,24.27
2019-02-05T15:46:45.889Z,24.50
2019-02-05T15:49:15.395Z,25.77
2019-02-05T15:51:44.634Z,25.83
2019-02-05T15:54:13.894Z,25.20
2019-02-05T15:56:43.106Z,24.87
2019-02-05T15:59:12.460Z,24.70
2019-02-05T16:01:41.924Z,25.20
2019-02-05T16:04:11.095Z,25.37
2019-02-05T16:06:40.386Z,25.70
2019-02-05T16:09:09.610Z,23.63
2019-02-05T16:11:38.815Z,23.63
2019-02-05T16:14:08.444Z,22.13
2019-02-05T16:16:37.628Z,22.83
2019-02-05T16:19:06.831Z,22.93
2019-02-05T16:21:36.134Z,22.90
2019-02-05T16:24:05.575Z,21.97
2019-02-05T16:26:34.775Z,22.37
2019-02-05T16:29:04.680Z,23.07
2019-02-05T16:31:33.863Z,22.43
2019-02-05T16:34:03.020Z,21.93
2019-02-05T16:36:32.412Z,22.33
2019-02-05T16:39:01.656Z,23.50
2019-02-05T16:41:30.904Z,22.33
2019-02-05T16:44:00.744Z,24.13
2019-02-05T16:46:29.938Z,23.57
2019-02-05T16:48:59.300Z,21.63
2019-02-05T16:51:28.574Z,24.30
2019-02-05T16:53:57.766Z,22.70
2019-02-05T16:56:26.955Z,24.55
2019-02-05T16:58:56.844Z,23.30
2019-02-05T17:01:25.955Z,22.77
2019-02-05T17:03:55.142Z,22.40
2019-02-05T17:06:25.405Z,23.40
2019-02-05T17:08:54.661Z,21.63
2019-02-05T17:11:24.789Z,23.03
2019-02-05T17:13:54.113Z,20.23
2019-02-05T17:16:23.266Z,20.37
2019-02-05T17:18:52.553Z,20.13
2019-02-05T17:21:21.853Z,19.37
2019-02-05T17:23:51.015Z,21.57
2019-02-05T17:26:20.296Z,20.73
2019-02-05T17:28:49.864Z,21.07
2019-02-05T17:31:19.080Z,19.33
2019-02-05T17:33:48.303Z,20.52
2019-02-05T17:36:17.678Z,21.63
2019-02-05T17:38:46.879Z,21.83
2019-02-05T17:41:16.054Z,23.70
2019-02-05T17:43:45.337Z,22.50
2019-02-05T17:46:14.508Z,24.67
2019-02-05T17:48:43.710Z,23.13
2019-02-05T17:51:13.015Z,23.90
2019-02-05T17:53:42.206Z,22.87
2019-02-05T17:56:11.386Z,22.70
2019-02-05T17:58:40.650Z,23.90
2019-02-05T18:01:12.115Z,23.87
2019-02-05T18:03:41.673Z,22.60
2019-02-05T18:06:10.889Z,22.50
2019-02-05T18:08:40.055Z,24.13
2019-02-05T18:11:09.469Z,22.80
2019-02-05T18:13:38.726Z,21.57
2019-02-05T18:16:27.267Z,19.87
2019-02-05T18:18:56.491Z,19.90
2019-02-05T18:21:25.691Z,20.97
2019-02-05T18:23:54.951Z,19.57
2019-02-05T18:26:24.152Z,18.53
2019-02-05T18:28:53.311Z,19.07
2019-02-05T18:31:22.729Z,18.70
2019-02-05T18:33:51.932Z,19.43
2019-02-05T18:36:21.123Z,19.13
2019-02-05T18:38:50.452Z,18.17
2019-02-05T18:41:19.659Z,18.30
2019-02-05T18:43:48.771Z,19.30
2019-02-05T18:46:18.100Z,18.87
2019-02-05T18:48:47.282Z,18.77
2019-02-05T18:51:16.560Z,17.80
2019-02-05T18:53:45.748Z,17.83
2019-02-05T18:56:15.027Z,17.50
2019-02-05T18:59:03.608Z,18.50
2019-02-05T19:01:32.954Z,16.77
2019-02-05T19:04:02.660Z,16.83
2019-02-05T19:06:32.166Z,16.90
2019-02-05T19:09:02.289Z,17.37
2019-02-05T19:11:31.567Z,16.37
2019-02-05T19:14:00.901Z,17.33
2019-02-05T19:16:30.131Z,16.57
2019-02-05T19:18:59.461Z,17.03
2019-02-05T19:21:29.149Z,16.07
2019-02-05T19:24:07.198Z,16.10
2019-02-05T19:26:45.797Z,15.30
2019-02-05T19:29:18.903Z,15.33
2019-02-05T19:31:46.068Z,14.40
2019-02-05T19:34:15.514Z,14.10
2019-02-05T19:36:44.603Z,14.20
2019-02-05T19:39:13.806Z,13.63
2019-02-05T19:41:43.303Z,13.00
2019-02-05T19:44:12.499Z,12.87
2019-02-05T19:46:50.742Z,12.77
2019-02-05T19:49:23.293Z,11.87
2019-02-05T19:51:52.535Z,12.23
2019-02-05T19:54:22.066Z,11.70
2019-02-05T19:56:51.238Z,12.27
2019-02-05T19:59:20.835Z,12.30
2019-02-05T20:01:50.096Z,11.97
2019-02-05T20:04:19.309Z,12.07
2019-02-05T20:06:48.655Z,12.13
2019-02-05T20:09:17.732Z,11.07
2019-02-05T20:11:46.920Z,11.37
2019-02-05T20:14:16.239Z,11.90
2019-02-05T20:16:45.506Z,11.13
2019-02-05T20:19:14.679Z,11.63
2019-02-05T20:21:44.320Z,11.20
2019-02-05T20:24:13.494Z,10.80
2019-02-05T20:26:47.598Z,10.23
2019-02-05T20:29:16.287Z,10.60
2019-02-05T20:31:45.868Z,9.37
2019-02-05T20:34:15.047Z,9.97
2019-02-05T20:36:44.397Z,9.50
2019-02-05T20:39:15.590Z,10.13
2019-02-05T20:41:44.890Z,9.10
2019-02-05T20:44:14.114Z,9.73
2019-02-05T20:46:43.503Z,9.43
2019-02-05T20:49:12.726Z,9.60
2019-02-05T20:51:41.906Z,9.67
2019-02-05T20:54:11.302Z,9.57
2019-02-05T20:56:40.462Z,9.20
2019-02-05T20:59:09.846Z,9.63
2019-02-05T21:01:39.316Z,9.70
2019-02-05T21:04:08.460Z,9.43
2019-02-05T21:06:37.709Z,9.70
2019-02-05T21:09:19.932Z,9.03
2019-02-05T21:11:49.291Z,9.30
2019-02-05T21:14:18.642Z,9.23
2019-02-05T21:16:47.868Z,9.00
2019-02-05T21:19:17.123Z,10.00
2019-02-05T21:21:46.239Z,9.70
2019-02-05T21:24:15.727Z,9.53
2019-02-05T21:26:45.354Z,9.40
2019-02-05T21:29:14.521Z,9.03
2019-02-05T21:31:43.995Z,10.67
2019-02-05T21:34:15.983Z,9.43
2019-02-05T21:36:44.673Z,10.03
2019-02-05T21:39:14.241Z,9.67
2019-02-05T21:41:43.420Z,9.47
2019-02-05T21:44:12.649Z,8.97
2019-02-05T21:46:42.077Z,9.03
2019-02-05T21:49:11.257Z,8.97
2019-02-05T21:51:43.800Z,9.00
2019-02-05T21:54:11.422Z,8.00
2019-02-05T21:56:40.639Z,8.57
2019-02-05T21:59:09.809Z,8.33
2019-02-05T22:01:39.315Z,7.77
2019-02-05T22:04:10.190Z,8.00
2019-02-05T22:06:39.418Z,8.50
2019-02-05T22:09:12.039Z,7.80
2019-02-05T22:11:41.260Z,7.67
2019-02-05T22:14:10.421Z,7.10
2019-02-05T22:16:39.766Z,7.50
2019-02-05T22:19:09.771Z,6.83
2019-02-05T22:21:38.930Z,6.53
2019-02-05T22:24:08.264Z,6.67
2019-02-05T22:26:37.458Z,7.40
2019-02-05T22:29:06.806Z,6.80
2019-02-05T22:31:36.095Z,6.70
2019-02-05T22:34:05.857Z,7.40
2019-02-05T22:36:35.196Z,6.53
2019-02-05T22:39:06.950Z,6.83
2019-02-05T22:41:36.123Z,7.77
2019-02-05T22:44:05.920Z,7.53
2019-02-05T22:46:35.035Z,7.40
2019-02-05T22:49:04.201Z,6.90
2019-02-05T22:51:33.359Z,7.30
2019-02-05T22:54:02.654Z,6.90
2019-02-05T22:56:31.750Z,7.17
2019-02-05T22:59:01.132Z,7.93
2019-02-05T23:01:36.816Z,7.53
2019-02-05T23:04:29.788Z,6.70
2019-02-05T23:07:20.343Z,7.53
2019-02-05T23:10:18.237Z,6.50
2019-02-05T23:12:57.295Z,6.40
2019-02-05T23:15:29.098Z,6.13
2019-02-05T23:17:59.626Z,6.57
2019-02-05T23:20:29.052Z,6.77
2019-02-05T23:22:58.228Z,6.37
2019-02-05T23:25:27.512Z,7.27
2019-02-05T23:27:56.626Z,6.63
2019-02-05T23:30:28.281Z,6.90
2019-02-05T23:32:57.515Z,6.80
2019-02-05T23:35:26.946Z,6.67
2019-02-05T23:37:56.155Z,7.03
2019-02-05T23:40:25.238Z,7.80
2019-02-05T23:42:54.496Z,7.03
2019-02-05T23:45:42.772Z,7.33
2019-02-05T23:48:11.825Z,7.50
2019-02-05T23:50:40.916Z,7.43
2019-02-05T23:53:11.086Z,7.70
2019-02-05T23:55:40.241Z,7.33
2019-02-05T23:58:09.372Z,7.53
